Time;durP1;ratioP1;P1;durP2;ratioP2;P2;SDS_P1;SDS_P2;PMS_P1;PMS_P2;Temp;Humidity;BMP_temperature;BMP_pressure;BME280_temperature;BME280_humidity;BME280_pressure;Samples;Min_cycle;Max_cycle;Signal;HPM_P1;HPM_P2
2023/08/28 00:00:11;;;;;;;3.95;1.30;;;14.50;99.90;;;;;;5044708;28;20053;-80
2023/08/28 00:02:37;;;;;;;2.13;1.27;;;13.30;99.90;;;;;;5010410;28;20511;-79
2023/08/28 00:05:03;;;;;;;2.90;1.65;;;14.00;99.90;;;;;;5047248;28;20072;-82
2023/08/28 00:07:29;;;;;;;4.43;1.25;;;13.30;99.90;;;;;;5046175;28;20037;-81
2023/08/28 00:09:54;;;;;;;2.95;1.30;;;13.30;99.90;;;;;;5047595;28;20812;-80
2023/08/28 00:12:20;;;;;;;2.65;1.45;;;13.20;99.90;;;;;;5050978;28;20483;-81
2023/08/28 00:14:46;;;;;;;3.72;1.50;;;13.20;99.90;;;;;;5052322;28;20045;-82
2023/08/28 00:17:12;;;;;;;1.75;0.98;;;13.20;99.90;;;;;;5052117;28;20473;-82
2023/08/28 00:19:40;;;;;;;7.63;1.55;;;13.10;99.90;;;;;;4991729;28;20042;-81
2023/08/28 00:22:06;;;;;;;3.95;1.35;;;13.10;99.90;;;;;;5030558;28;20045;-81
2023/08/28 00:24:34;;;;;;;1.48;1.27;;;13.20;99.90;;;;;;5035541;28;20110;-81
2023/08/28 00:27:00;;;;;;;7.20;1.92;;;13.10;99.90;;;;;;5033618;28;20051;-81
2023/08/28 00:29:26;;;;;;;3.47;1.75;;;13.20;99.90;;;;;;5052123;28;20037;-80
2023/08/28 00:31:51;;;;;;;1.67;1.30;;;13.20;99.90;;;;;;5051544;28;20045;-81
2023/08/28 00:34:17;;;;;;;6.18;1.55;;;14.50;99.90;;;;;;5052850;28;20396;-80
2023/08/28 00:36:43;;;;;;;3.55;1.38;;;14.00;99.90;;;;;;5044619;28;20455;-81
2023/08/28 00:39:08;;;;;;;4.03;1.25;;;13.20;99.90;;;;;;5049338;28;20049;-81
2023/08/28 00:41:36;;;;;;;2.70;1.60;;;13.20;99.90;;;;;;5045804;28;20128;-81
2023/08/28 00:44:02;;;;;;;3.40;1.33;;;13.20;99.90;;;;;;5043085;28;20037;-81
2023/08/28 00:46:28;;;;;;;3.70;1.42;;;13.10;99.90;;;;;;5045516;28;20048;-81
2023/08/28 00:48:53;;;;;;;4.78;1.48;;;13.10;99.90;;;;;;5045896;28;20041;-81
2023/08/28 00:51:19;;;;;;;2.28;1.45;;;13.10;99.90;;;;;;5047354;28;20037;-80
2023/08/28 00:53:45;;;;;;;2.80;1.42;;;13.10;99.90;;;;;;5035383;28;20405;-79
2023/08/28 00:56:13;;;;;;;2.33;0.82;;;13.10;99.90;;;;;;5034964;28;20068;-80
2023/08/28 00:58:40;;;;;;;4.55;1.20;;;13.10;99.90;;;;;;5034020;28;20484;-80
2023/08/28 01:01:05;;;;;;;2.72;1.13;;;13.00;99.90;;;;;;5033493;28;20152;-78
2023/08/28 01:03:31;;;;;;;2.83;1.10;;;13.00;99.90;;;;;;5049682;28;20120;-78
2023/08/28 01:06:15;;;;;;;4.32;1.10;;;13.00;99.90;;;;;;5051269;28;20059;-80
2023/08/28 01:09:04;;;;;;;2.63;1.20;;;13.00;99.90;;;;;;5026650;28;20130;-81
2023/08/28 01:11:41;;;;;;;3.28;2.63;;;13.00;99.90;;;;;;5050765;28;20051;-80
2023/08/28 01:14:25;;;;;;;4.13;0.90;;;13.00;99.90;;;;;;5041776;28;20059;-80
2023/08/28 01:16:53;;;;;;;2.67;0.97;;;13.90;99.90;;;;;;5051514;28;20120;-81
2023/08/28 01:19:31;;;;;;;2.47;1.08;;;13.00;99.90;;;;;;5050157;28;20842;-80
2023/08/28 01:22:10;;;;;;;1.20;0.70;;;14.40;99.90;;;;;;5052668;28;20527;-80
2023/08/28 01:24:42;;;;;;;1.30;0.65;;;14.10;99.90;;;;;;5049050;28;20040;-80
2023/08/28 01:27:08;;;;;;;3.22;0.60;;;12.90;99.90;;;;;;5045588;28;20060;-81
2023/08/28 01:29:33;;;;;;;1.40;0.52;;;12.90;99.90;;;;;;5036931;28;20037;-81
2023/08/28 01:31:59;;;;;;;2.20;0.60;;;12.90;99.90;;;;;;5036237;28;20407;-81
2023/08/28 01:34:24;;;;;;;2.22;0.57;;;12.90;99.90;;;;;;5052344;28;20043;-80
2023/08/28 01:36:56;;;;;;;3.67;0.70;;;12.90;99.90;;;;;;5049119;28;20084;-81
2023/08/28 01:39:37;;;;;;;2.65;0.60;;;12.90;99.90;;;;;;5039642;28;20433;-81
2023/08/28 01:42:05;;;;;;;1.77;0.60;;;13.10;99.90;;;;;;5046954;28;20052;-81
2023/08/28 01:44:33;;;;;;;2.17;1.15;;;12.90;99.90;;;;;;5048589;28;20041;-81
2023/08/28 01:46:59;;;;;;;2.28;0.82;;;12.90;99.90;;;;;;5046370;28;20111;-81
2023/08/28 01:49:29;;;;;;;2.17;0.98;;;12.90;99.90;;;;;;5051532;28;20516;-81
2023/08/28 01:51:55;;;;;;;1.90;0.93;;;12.90;99.90;;;;;;5031149;28;20386;-80
2023/08/28 01:54:22;;;;;;;2.60;0.80;;;13.20;99.90;;;;;;5036085;28;20556;-81
2023/08/28 01:56:48;;;;;;;2.60;0.65;;;12.90;99.90;;;;;;5045610;28;20103;-81
2023/08/28 01:59:14;;;;;;;1.95;0.70;;;12.90;99.90;;;;;;5032317;28;20139;-81
2023/08/28 02:01:40;;;;;;;1.73;0.70;;;12.80;99.90;;;;;;5044758;28;20046;-81
2023/08/28 02:04:06;;;;;;;1.70;0.73;;;12.80;99.90;;;;;;5040716;28;20095;-80
2023/08/28 02:06:32;;;;;;;1.20;0.70;;;12.80;99.90;;;;;;5030911;28;20132;-81
2023/08/28 02:08:57;;;;;;;1.05;0.60;;;12.80;99.90;;;;;;5047065;28;20043;-80
2023/08/28 02:11:23;;;;;;;2.28;0.45;;;12.80;99.90;;;;;;5043882;28;20116;-81
2023/08/28 02:13:49;;;;;;;2.92;0.57;;;12.80;99.90;;;;;;5050233;28;20048;-81
2023/08/28 02:16:16;;;;;;;2.85;0.80;;;13.30;99.90;;;;;;5043569;28;20049;-80
2023/08/28 02:18:42;;;;;;;2.03;0.65;;;12.80;99.90;;;;;;5050565;28;20041;-80
2023/08/28 02:21:08;;;;;;;2.03;0.60;;;12.70;99.90;;;;;;5050966;28;20064;-80
2023/08/28 02:23:33;;;;;;;1.67;0.60;;;13.80;99.90;;;;;;5032946;28;20520;-81
2023/08/28 02:25:59;;;;;;;3.17;0.80;;;13.60;99.90;;;;;;5050501;28;20036;-81
2023/08/28 02:28:25;;;;;;;4.18;0.88;;;13.00;99.90;;;;;;5032331;28;20218;-81
2023/08/28 02:30:51;;;;;;;1.23;0.77;;;13.50;99.90;;;;;;5048970;28;20147;-82
2023/08/28 02:33:17;;;;;;;3.45;0.45;;;12.70;99.90;;;;;;5050027;28;20045;-80
2023/08/28 02:35:43;;;;;;;1.85;0.60;;;12.60;99.90;;;;;;5047859;28;20043;-81
2023/08/28 02:38:12;;;;;;;4.10;0.70;;;14.10;99.90;;;;;;5046779;28;20048;-81
2023/08/28 02:40:39;;;;;;;1.70;0.70;;;12.60;99.90;;;;;;5025015;28;20433;-81
2023/08/28 02:43:05;;;;;;;1.95;0.60;;;12.60;99.90;;;;;;5027352;28;20559;-82
2023/08/28 02:45:33;;;;;;;0.65;0.63;;;12.60;99.90;;;;;;5044524;28;20042;-81
2023/08/28 02:47:59;;;;;;;1.27;0.80;;;13.30;99.90;;;;;;5047969;28;20076;-81
2023/08/28 02:50:24;;;;;;;1.92;0.63;;;12.80;99.90;;;;;;5048806;28;20133;-81
2023/08/28 02:52:50;;;;;;;1.38;1.08;;;13.60;99.90;;;;;;5049759;28;20048;-81
2023/08/28 02:55:15;;;;;;;0.90;0.90;;;12.50;99.90;;;;;;5031203;28;20054;-80
2023/08/28 02:57:41;;;;;;;1.70;1.17;;;12.50;99.90;;;;;;5048582;28;20052;-80
2023/08/28 03:00:08;;;;;;;3.10;1.25;;;12.40;99.90;;;;;;5049867;28;20455;-81
2023/08/28 03:02:33;;;;;;;2.85;1.15;;;12.40;99.90;;;;;;5046548;28;20041;-81
2023/08/28 03:04:59;;;;;;;5.25;1.30;;;12.80;99.90;;;;;;5037046;28;20396;-81
2023/08/28 03:07:24;;;;;;;1.67;1.00;;;12.60;99.90;;;;;;5049874;28;20056;-81
2023/08/28 03:09:50;;;;;;;2.60;1.30;;;12.30;99.90;;;;;;5047882;28;20044;-81
2023/08/28 03:12:16;;;;;;;0.88;0.88;;;12.40;99.90;;;;;;5049253;28;20048;-80
2023/08/28 03:15:01;;;;;;;3.30;1.38;;;12.30;99.90;;;;;;5050573;28;20056;-82
2023/08/28 03:17:26;;;;;;;2.20;1.15;;;12.30;99.90;;;;;;5047436;28;20063;-81
2023/08/28 03:19:52;;;;;;;2.40;1.00;;;12.30;99.90;;;;;;5049606;28;20123;-81
2023/08/28 03:22:18;;;;;;;1.10;1.10;;;12.30;99.90;;;;;;5031064;28;20492;-81
2023/08/28 03:24:43;;;;;;;1.38;1.27;;;12.30;99.90;;;;;;5049081;28;20058;-81
2023/08/28 03:27:09;;;;;;;2.92;1.38;;;12.30;99.90;;;;;;5036426;28;20083;-81
2023/08/28 03:29:34;;;;;;;4.82;1.50;;;12.30;99.90;;;;;;5048775;28;20033;-81
2023/08/28 03:32:00;;;;;;;5.32;1.38;;;12.30;99.90;;;;;;5047620;28;20745;-82
2023/08/28 03:34:26;;;;;;;1.85;0.98;;;12.40;99.90;;;;;;5045762;28;20045;-81
2023/08/28 03:36:51;;;;;;;5.63;1.63;;;12.40;99.90;;;;;;5040000;28;20037;-81
2023/08/28 03:39:17;;;;;;;2.90;1.42;;;12.40;99.90;;;;;;5045170;28;20096;-80
2023/08/28 03:41:42;;;;;;;7.13;1.67;;;12.40;99.90;;;;;;5049023;28;20504;-81
2023/08/28 03:44:08;;;;;;;2.63;1.15;;;13.00;99.90;;;;;;5048144;28;20037;-81
2023/08/28 03:46:34;;;;;;;2.55;1.73;;;12.40;99.90;;;;;;5038150;28;20111;-81
2023/08/28 03:48:59;;;;;;;2.05;1.67;;;12.40;99.90;;;;;;5044111;28;20392;-81
2023/08/28 03:51:25;;;;;;;2.17;1.38;;;12.50;99.90;;;;;;5045771;28;20041;-81
2023/08/28 03:53:50;;;;;;;1.65;1.55;;;12.50;99.90;;;;;;5046195;28;20044;-81
2023/08/28 03:56:16;;;;;;;4.65;1.90;;;12.50;99.90;;;;;;5050683;28;20543;-81
2023/08/28 03:58:42;;;;;;;3.17;1.55;;;12.50;99.90;;;;;;5050829;28;20041;-81
2023/08/28 04:01:07;;;;;;;1.90;1.80;;;12.50;99.90;;;;;;5051297;28;20045;-80
2023/08/28 04:03:33;;;;;;;1.60;1.20;;;13.60;99.90;;;;;;5044980;28;20482;-81
2023/08/28 04:05:59;;;;;;;2.90;1.35;;;12.50;99.90;;;;;;5051049;28;20477;-81
2023/08/28 04:08:25;;;;;;;4.20;2.03;;;12.50;99.90;;;;;;5051852;28;20095;-81
2023/08/28 04:10:52;;;;;;;2.45;1.70;;;12.50;99.90;;;;;;5048879;28;20463;-81
2023/08/28 04:13:18;;;;;;;4.50;1.80;;;12.50;99.90;;;;;;5051930;28;20067;-80
2023/08/28 04:15:44;;;;;;;1.83;1.73;;;12.50;99.90;;;;;;5034560;28;20036;-81
2023/08/28 04:18:09;;;;;;;2.25;1.83;;;12.50;99.90;;;;;;5052191;28;20041;-81
2023/08/28 04:20:36;;;;;;;3.88;2.20;;;12.60;99.90;;;;;;5031010;28;20063;-79
2023/08/28 04:23:02;;;;;;;2.08;1.92;;;12.50;99.90;;;;;;5052817;28;20056;-82
2023/08/28 04:25:29;;;;;;;2.45;2.15;;;12.40;99.90;;;;;;5036524;28;20396;-81
2023/08/28 04:27:54;;;;;;;2.55;1.95;;;12.40;99.90;;;;;;5044674;28;20123;-81
2023/08/28 04:30:20;;;;;;;4.20;1.85;;;12.40;99.90;;;;;;5026303;28;20045;-80
2023/08/28 04:32:46;;;;;;;4.43;2.28;;;12.40;99.90;;;;;;5041767;28;20546;-81
2023/08/28 04:35:11;;;;;;;2.20;2.00;;;12.40;99.90;;;;;;5042645;28;20053;-81
2023/08/28 04:37:37;;;;;;;3.08;1.90;;;12.40;99.90;;;;;;5045152;28;20037;-81
2023/08/28 04:40:03;;;;;;;4.10;1.90;;;12.50;99.90;;;;;;5011702;28;20040;-80
2023/08/28 04:42:29;;;;;;;4.38;2.33;;;12.50;99.90;;;;;;5044419;28;20489;-81
2023/08/28 04:44:54;;;;;;;2.75;1.80;;;12.40;99.90;;;;;;5043370;28;20041;-80
2023/08/28 04:47:21;;;;;;;2.58;2.08;;;12.40;99.90;;;;;;5026849;28;20048;-81
2023/08/28 04:49:46;;;;;;;3.70;2.08;;;12.40;99.90;;;;;;5023688;28;20047;-81
2023/08/28 04:52:12;;;;;;;2.38;2.10;;;12.50;99.90;;;;;;5042653;28;20424;-80
2023/08/28 04:54:38;;;;;;;6.28;2.10;;;12.40;99.90;;;;;;5044252;28;20044;-81
2023/08/28 04:57:04;;;;;;;2.45;2.13;;;12.50;99.90;;;;;;5031332;28;20098;-80
2023/08/28 04:59:32;;;;;;;2.92;2.53;;;12.50;99.90;;;;;;5051824;28;20041;-79
2023/08/28 05:01:58;;;;;;;3.45;2.60;;;12.50;99.90;;;;;;5023157;28;20560;-80
2023/08/28 05:04:24;;;;;;;2.28;2.08;;;12.50;99.90;;;;;;5045587;28;20116;-81
2023/08/28 05:06:49;;;;;;;2.25;2.00;;;12.50;99.90;;;;;;5049454;28;20051;-80
2023/08/28 05:09:15;;;;;;;2.30;1.90;;;12.50;99.90;;;;;;5033192;28;20049;-79
2023/08/28 05:11:41;;;;;;;5.35;2.35;;;12.70;99.90;;;;;;5049808;28;20492;-80
2023/08/28 05:14:06;;;;;;;3.20;2.13;;;12.40;99.90;;;;;;5051170;28;20084;-80
2023/08/28 05:16:32;;;;;;;3.28;1.50;;;12.40;99.90;;;;;;5050290;28;20049;-81
2023/08/28 05:18:58;;;;;;;3.15;2.53;;;12.40;99.90;;;;;;5032143;28;20045;-82
2023/08/28 05:21:23;;;;;;;2.40;2.20;;;12.40;99.90;;;;;;5049822;28;20120;-81
2023/08/28 05:23:49;;;;;;;2.38;2.13;;;12.40;99.90;;;;;;5048361;28;20064;-81
2023/08/28 05:26:14;;;;;;;5.13;2.53;;;13.60;99.90;;;;;;5051211;28;20382;-79
2023/08/28 05:28:40;;;;;;;3.28;2.58;;;12.40;99.90;;;;;;5045392;28;20048;-79
2023/08/28 05:31:06;;;;;;;4.68;2.38;;;12.40;99.90;;;;;;5050007;28;20204;-81
2023/08/28 05:33:36;;;;;;;4.43;2.47;;;12.40;99.90;;;;;;5046235;28;20049;-80
2023/08/28 05:36:02;;;;;;;3.95;2.78;;;12.40;99.90;;;;;;5044163;28;20102;-81
2023/08/28 05:38:28;;;;;;;4.05;2.60;;;13.20;99.90;;;;;;5049911;28;20049;-81
2023/08/28 05:40:54;;;;;;;3.40;2.65;;;12.40;99.90;;;;;;5045941;28;20033;-80
2023/08/28 05:43:20;;;;;;;3.15;2.45;;;12.80;99.90;;;;;;5044631;28;20460;-81
2023/08/28 05:45:46;;;;;;;3.42;3.10;;;12.50;99.90;;;;;;5024479;28;20036;-79
2023/08/28 05:48:12;;;;;;;4.53;2.42;;;12.50;99.90;;;;;;5043024;28;20053;-81
2023/08/28 05:50:39;;;;;;;4.10;2.00;;;13.80;99.90;;;;;;5043054;28;20511;-81
2023/08/28 05:53:06;;;;;;;4.30;2.70;;;12.80;99.90;;;;;;5040982;28;20505;-81
2023/08/28 05:55:32;;;;;;;5.50;3.05;;;12.50;99.90;;;;;;5043521;28;20539;-81
2023/08/28 05:57:57;;;;;;;4.15;2.13;;;12.50;99.90;;;;;;5047966;28;20033;-81
2023/08/28 06:00:23;;;;;;;2.85;2.65;;;12.60;99.90;;;;;;5043668;28;20161;-81
2023/08/28 06:02:49;;;;;;;2.92;2.60;;;12.60;99.90;;;;;;5024548;28;20053;-80
2023/08/28 06:05:14;;;;;;;3.35;3.03;;;12.60;99.90;;;;;;5043198;28;20115;-81
2023/08/28 06:07:40;;;;;;;3.28;2.97;;;12.70;99.90;;;;;;5043531;28;20056;-80
2023/08/28 06:10:07;;;;;;;8.30;3.33;;;12.70;99.90;;;;;;5045595;28;20511;-81
2023/08/28 06:12:34;;;;;;;4.65;3.25;;;12.70;99.90;;;;;;5049262;28;20045;-81
2023/08/28 06:14:59;;;;;;;4.40;3.03;;;12.80;99.90;;;;;;5044634;28;20040;-81
2023/08/28 06:17:25;;;;;;;4.20;2.67;;;12.80;99.90;;;;;;5049590;28;20484;-82
2023/08/28 06:19:50;;;;;;;4.88;2.45;;;12.80;99.90;;;;;;5048710;28;20053;-80
2023/08/28 06:22:16;;;;;;;4.88;2.47;;;13.40;99.90;;;;;;5029887;28;20049;-81
2023/08/28 06:24:42;;;;;;;4.60;2.53;;;12.90;99.90;;;;;;5050505;28;20087;-81
2023/08/28 06:27:08;;;;;;;3.13;2.30;;;12.90;99.90;;;;;;5029485;28;20103;-84
2023/08/28 06:29:44;;;;;;;3.40;2.70;;;13.00;99.90;;;;;;4718212;28;10001266;-84
2023/08/28 06:32:11;;;;;;;4.30;2.33;;;13.00;99.90;;;;;;5046055;28;20276;-83
2023/08/28 06:34:37;;;;;;;4.60;2.25;;;13.00;99.90;;;;;;5044073;28;20544;-83
2023/08/28 06:37:02;;;;;;;3.47;1.95;;;13.20;99.90;;;;;;5045716;28;20037;-83
2023/08/28 06:39:28;;;;;;;5.72;2.45;;;13.10;99.90;;;;;;5030421;28;20318;-81
2023/08/28 06:41:54;;;;;;;3.47;1.83;;;14.30;99.90;;;;;;5028192;28;20049;-82
2023/08/28 06:44:19;;;;;;;3.50;2.03;;;13.40;99.90;;;;;;5030861;28;20045;-82
2023/08/28 06:46:45;;;;;;;4.32;2.40;;;13.30;99.90;;;;;;5051895;28;20099;-83
2023/08/28 06:49:10;;;;;;;3.17;2.28;;;13.40;99.90;;;;;;5046917;28;20041;-82
2023/08/28 06:51:36;;;;;;;7.90;2.63;;;13.40;99.90;;;;;;5041343;28;20049;-82
2023/08/28 06:54:02;;;;;;;4.88;2.08;;;13.50;99.90;;;;;;5041329;28;20048;-81
2023/08/28 06:56:29;;;;;;;3.88;2.60;;;13.50;99.90;;;;;;5049806;28;20063;-84
2023/08/28 06:58:55;;;;;;;3.75;2.53;;;13.60;99.90;;;;;;5046327;28;20037;-81
2023/08/28 07:01:21;;;;;;;5.88;2.53;;;13.70;99.90;;;;;;5047406;28;20044;-81
2023/08/28 07:03:48;;;;;;;2.00;1.90;;;14.70;99.90;;;;;;5048048;28;20044;-82
2023/08/28 07:06:13;;;;;;;5.25;2.50;;;13.80;99.90;;;;;;5048055;28;20033;-84
2023/08/28 07:08:39;;;;;;;3.30;2.08;;;14.00;99.90;;;;;;5043870;28;20033;-81
2023/08/28 07:11:05;;;;;;;4.00;2.22;;;14.40;99.90;;;;;;5024384;28;20633;-80
2023/08/28 07:13:31;;;;;;;3.60;2.03;;;14.20;99.90;;;;;;5027062;28;20045;-81
2023/08/28 07:15:59;;;;;;;4.25;1.95;;;14.10;99.90;;;;;;5025195;28;20084;-83
2023/08/28 07:18:26;;;;;;;4.68;2.03;;;14.20;99.90;;;;;;5044788;28;20045;-82
2023/08/28 07:20:52;;;;;;;5.88;2.40;;;14.30;99.90;;;;;;5041908;28;20099;-83
2023/08/28 07:23:18;;;;;;;2.40;2.20;;;14.40;99.90;;;;;;5046442;28;20068;-83
2023/08/28 07:25:44;;;;;;;3.03;2.67;;;14.40;99.90;;;;;;5047477;28;20033;-82
2023/08/28 07:28:10;;;;;;;6.18;2.17;;;14.50;99.90;;;;;;5039629;28;20037;-81
2023/08/28 07:30:36;;;;;;;4.20;2.17;;;14.50;99.90;;;;;;5040323;28;20110;-82
2023/08/28 07:33:03;;;;;;;2.45;2.20;;;14.60;99.90;;;;;;5047188;28;20519;-83
2023/08/28 07:35:34;;;;;;;2.67;2.47;;;14.70;99.90;;;;;;5049992;28;20045;-82
2023/08/28 07:38:06;;;;;;;3.88;2.30;;;15.70;99.90;;;;;;5046133;28;20052;-83
2023/08/28 07:40:32;;;;;;;5.65;2.67;;;14.90;99.90;;;;;;5041627;28;20040;-82
2023/08/28 07:42:59;;;;;;;8.23;2.40;;;14.90;99.90;;;;;;5042981;28;20412;-83
2023/08/28 07:45:25;;;;;;;4.35;2.47;;;14.90;99.90;;;;;;5042039;28;20045;-81
2023/08/28 07:47:50;;;;;;;4.30;2.40;;;15.10;99.90;;;;;;5023196;28;20052;-82
2023/08/28 07:50:16;;;;;;;5.32;2.53;;;15.10;99.90;;;;;;5022590;28;20070;-82
2023/08/28 07:52:42;;;;;;;4.22;2.58;;;15.20;99.90;;;;;;5021699;28;20041;-83
2023/08/28 07:55:07;;;;;;;3.63;2.33;;;15.20;99.90;;;;;;5043234;28;20068;-84
2023/08/28 07:57:34;;;;;;;6.57;4.50;;;15.30;99.90;;;;;;5026261;28;20441;-82
2023/08/28 08:00:06;;;;;;;6.05;1.98;;;16.00;99.90;;;;;;5045449;28;20061;-83
2023/08/28 08:02:32;;;;;;;2.70;1.10;;;15.40;99.90;;;;;;5040871;28;20049;-84
2023/08/28 08:04:58;;;;;;;3.65;1.52;;;15.50;99.90;;;;;;5021349;28;20057;-81
2023/08/28 08:07:24;;;;;;;3.03;0.77;;;15.60;99.90;;;;;;5038450;28;20029;-81
2023/08/28 08:09:50;;;;;;;2.33;0.90;;;16.10;99.90;;;;;;5024509;28;20476;-79
2023/08/28 08:12:15;;;;;;;2.85;0.95;;;15.60;99.90;;;;;;5041698;28;20056;-81
2023/08/28 08:14:41;;;;;;;4.13;1.10;;;15.70;99.90;;;;;;5041878;28;20044;-81
2023/08/28 08:17:07;;;;;;;3.60;0.90;;;15.70;99.90;;;;;;5046834;28;20056;-83
2023/08/28 08:19:33;;;;;;;1.40;0.47;;;15.80;99.90;;;;;;5041828;28;21159;-79
2023/08/28 08:21:59;;;;;;;3.28;0.57;;;16.70;99.90;;;;;;5043042;28;20103;-81
2023/08/28 08:24:24;;;;;;;3.50;0.73;;;16.00;99.90;;;;;;5041324;28;20497;-81
2023/08/28 08:26:50;;;;;;;1.95;0.70;;;16.00;99.90;;;;;;5040003;28;20045;-83
2023/08/28 08:29:15;;;;;;;1.65;0.68;;;16.10;99.90;;;;;;5022138;28;20052;-82
2023/08/28 08:31:41;;;;;;;2.03;0.50;;;16.20;99.90;;;;;;5030642;28;20045;-82
2023/08/28 08:34:07;;;;;;;5.22;0.70;;;16.20;99.90;;;;;;5049093;28;20854;-81
2023/08/28 08:36:35;;;;;;;2.42;0.80;;;16.20;99.90;;;;;;5049786;28;20049;-81
2023/08/28 08:39:04;;;;;;;2.50;0.63;;;16.30;99.90;;;;;;5045426;28;20041;-82
2023/08/28 08:41:29;;;;;;;3.60;0.55;;;16.40;99.90;;;;;;5045999;28;20044;-83
2023/08/28 08:43:55;;;;;;;3.22;0.57;;;16.40;99.90;;;;;;5024258;28;20038;-83
2023/08/28 08:46:21;;;;;;;3.38;1.33;;;16.90;99.90;;;;;;5048049;28;20542;-82
2023/08/28 08:48:49;;;;;;;4.03;1.80;;;16.60;99.90;;;;;;5046640;28;20037;-82
2023/08/28 08:51:19;;;;;;;5.38;0.70;;;16.70;99.90;;;;;;5024972;28;20416;-80
2023/08/28 08:53:51;;;;;;;2.75;0.80;;;16.70;99.90;;;;;;5042946;28;20044;-77
2023/08/28 08:56:23;;;;;;;1.60;0.20;;;16.70;99.90;;;;;;5042185;28;20051;-80
2023/08/28 08:58:49;;;;;;;1.85;0.30;;;16.60;99.90;;;;;;5044228;28;20068;-79
2023/08/28 09:01:15;;;;;;;1.60;0.50;;;16.70;99.90;;;;;;5043552;28;20086;-79
2023/08/28 09:03:43;;;;;;;9.65;5.00;;;16.70;99.90;;;;;;5042631;28;20082;-79
2023/08/28 09:06:10;;;;;;;1.35;0.30;;;16.80;99.90;;;;;;5043410;28;20707;-79
2023/08/28 09:08:39;;;;;;;0.47;0.35;;;17.90;99.90;;;;;;5046556;28;20049;-81
2023/08/28 09:11:05;;;;;;;1.70;0.20;;;16.90;99.90;;;;;;5049200;28;20041;-80
2023/08/28 09:13:31;;;;;;;0.80;0.20;;;16.90;99.90;;;;;;5039186;28;20060;-78
2023/08/28 09:15:57;;;;;;;3.45;0.60;;;17.10;99.90;;;;;;5027407;28;20493;-79
2023/08/28 09:18:25;;;;;;;2.50;0.60;;;17.10;99.90;;;;;;5047503;28;20518;-82
2023/08/28 09:21:10;;;;;;;2.20;0.30;;;17.20;99.90;;;;;;5049844;28;20115;-78
2023/08/28 09:23:44;;;;;;;2.40;0.40;;;17.30;99.90;;;;;;5037463;28;20045;-79
2023/08/28 09:26:16;;;;;;;3.33;0.28;;;17.30;99.90;;;;;;5012833;28;20072;-79
2023/08/28 09:28:41;;;;;;;1.20;0.25;;;17.40;99.90;;;;;;5050950;28;20064;-79
2023/08/28 09:31:07;;;;;;;1.05;0.30;;;17.40;99.90;;;;;;5049788;28;20053;-79
2023/08/28 09:33:45;;;;;;;1.40;0.20;;;17.40;99.90;;;;;;5049655;28;20033;-79
2023/08/28 09:36:16;;;;;;;0.95;0.20;;;17.50;99.90;;;;;;5049635;28;20098;-79
2023/08/28 09:38:42;;;;;;;1.48;0.60;;;17.50;99.90;;;;;;5049626;28;20070;-79
2023/08/28 09:41:09;;;;;;;1.98;0.40;;;17.50;99.90;;;;;;5050843;28;20124;-79
2023/08/28 09:43:35;;;;;;;2.92;0.30;;;17.50;99.90;;;;;;5048104;28;20053;-79
2023/08/28 09:46:03;;;;;;;3.50;0.52;;;17.50;99.90;;;;;;5049697;28;20025;-80
2023/08/28 09:48:33;;;;;;;5.43;0.40;;;17.40;99.90;;;;;;5049666;28;20585;-81
2023/08/28 09:51:06;;;;;;;1.42;0.35;;;17.30;99.90;;;;;;5049144;28;20099;-80
2023/08/28 09:53:32;;;;;;;1.38;0.20;;;17.20;99.90;;;;;;5029276;28;20033;-81
2023/08/28 09:55:58;;;;;;;1.35;0.20;;;17.20;99.90;;;;;;5050045;28;20037;-82
2023/08/28 09:58:28;;;;;;;2.70;0.65;;;17.10;99.90;;;;;;5046385;28;20167;-79
2023/08/28 10:00:57;;;;;;;0.85;0.30;;;17.00;99.90;;;;;;5047987;28;20400;-81
2023/08/28 10:03:25;;;;;;;1.60;0.40;;;17.00;99.90;;;;;;5032503;28;20529;-80
2023/08/28 10:05:52;;;;;;;0.45;0.28;;;16.90;99.90;;;;;;5044895;28;20048;-82
2023/08/28 10:08:18;;;;;;;1.92;0.40;;;16.80;99.90;;;;;;5049364;28;20049;-82
2023/08/28 10:10:50;;;;;;;1.13;0.10;;;16.80;99.90;;;;;;5050115;28;20045;-82
2023/08/28 10:13:19;;;;;;;4.80;0.45;;;16.80;99.90;;;;;;5049483;28;20083;-77
2023/08/28 10:16:02;;;;;;;1.90;0.40;;;16.80;99.90;;;;;;5051073;28;20040;-81
2023/08/28 10:18:48;;;;;;;0.70;0.40;;;16.80;99.90;;;;;;5034732;28;20470;-79
2023/08/28 10:21:16;;;;;;;1.02;0.22;;;16.80;99.90;;;;;;5039361;28;20045;-81
2023/08/28 10:23:43;;;;;;;3.90;0.43;;;16.80;99.90;;;;;;5050081;28;20045;-81
2023/08/28 10:26:10;;;;;;;0.73;0.20;;;16.80;99.90;;;;;;5047120;28;20045;-82
2023/08/28 10:28:37;;;;;;;4.45;0.40;;;16.90;99.90;;;;;;5049430;28;20037;-82
2023/08/28 10:31:07;;;;;;;1.55;0.20;;;17.00;99.90;;;;;;5049867;28;20057;-81
2023/08/28 10:33:36;;;;;;;1.33;0.30;;;16.90;99.90;;;;;;5031723;28;20413;-82
2023/08/28 10:36:02;;;;;;;1.58;0.20;;;16.90;99.90;;;;;;5044127;28;20037;-80
2023/08/28 10:38:28;;;;;;;3.45;0.40;;;17.00;99.90;;;;;;5047477;28;20068;-82
2023/08/28 10:40:58;;;;;;;2.60;0.38;;;17.00;99.90;;;;;;5049597;28;20033;-81
2023/08/28 10:43:28;;;;;;;3.03;0.30;;;17.10;99.90;;;;;;5042072;28;20443;-82
2023/08/28 10:45:58;;;;;;;1.00;0.40;;;17.10;99.90;;;;;;5048978;28;20071;-81
2023/08/28 10:48:24;;;;;;;4.70;0.50;;;17.10;99.90;;;;;;5049349;28;20052;-82
2023/08/28 10:50:56;;;;;;;1.42;0.32;;;17.20;99.90;;;;;;5049069;28;20400;-80
2023/08/28 10:53:22;;;;;;;1.17;0.30;;;17.20;99.90;;;;;;5034324;28;20041;-81
2023/08/28 10:55:53;;;;;;;1.75;0.47;;;17.20;99.90;;;;;;5044319;28;20403;-78
2023/08/28 10:58:19;;;;;;;1.20;0.30;;;17.30;99.90;;;;;;5049102;28;20037;-82
2023/08/28 11:00:44;;;;;;;3.17;0.50;;;17.30;99.90;;;;;;5045693;28;20394;-81
2023/08/28 11:03:18;;;;;;;2.70;0.40;;;17.30;99.90;;;;;;5047105;28;20049;-81
2023/08/28 11:05:44;;;;;;;3.08;0.47;;;17.30;99.90;;;;;;5047159;28;20052;-80
2023/08/28 11:08:11;;;;;;;2.20;0.50;;;17.30;99.90;;;;;;5047561;28;20052;-82
2023/08/28 11:10:38;;;;;;;2.78;0.55;;;17.30;99.90;;;;;;5046575;28;20481;-83
2023/08/28 11:13:05;;;;;;;1.52;0.40;;;17.30;99.90;;;;;;5027936;28;20058;-83
2023/08/28 11:15:32;;;;;;;0.95;0.40;;;17.30;99.90;;;;;;5027111;28;20072;-82
2023/08/28 11:18:29;;;;;;;2.00;0.40;;;17.30;99.90;;;;;;5042156;28;20037;-83
2023/08/28 11:20:57;;;;;;;2.92;0.50;;;17.30;99.90;;;;;;5025441;28;20072;-81
2023/08/28 11:23:36;;;;;;;2.72;0.50;;;17.40;99.90;;;;;;5048243;28;20037;-82
2023/08/28 11:26:17;;;;;;;2.13;0.45;;;17.50;99.90;;;;;;5046465;28;20080;-81
2023/08/28 11:28:48;;;;;;;2.45;0.52;;;17.40;99.90;;;;;;5035083;28;20489;-78
2023/08/28 11:31:15;;;;;;;1.13;0.30;;;17.50;99.90;;;;;;5043416;28;20076;-83
2023/08/28 11:33:45;;;;;;;2.83;0.57;;;17.50;99.90;;;;;;5048652;28;20385;-80
2023/08/28 11:36:17;;;;;;;2.65;0.25;;;17.40;99.90;;;;;;5048325;28;20045;-81
2023/08/28 11:38:43;;;;;;;1.83;0.30;;;17.40;99.90;;;;;;5047911;28;20382;-81
2023/08/28 11:41:10;;;;;;;1.63;0.30;;;17.40;99.90;;;;;;5043034;28;20038;-81
2023/08/28 11:43:38;;;;;;;1.77;0.32;;;17.40;99.90;;;;;;5043795;28;20906;-82
2023/08/28 11:46:04;;;;;;;1.15;0.40;;;17.40;99.90;;;;;;5046957;28;20128;-82
2023/08/28 11:48:34;;;;;;;2.03;0.40;;;17.40;99.90;;;;;;5047125;28;20358;-82
2023/08/28 11:51:01;;;;;;;1.83;0.50;;;17.50;99.90;;;;;;5048546;28;20086;-80
2023/08/28 11:53:40;;;;;;;1.35;0.32;;;17.50;99.90;;;;;;5046265;28;20045;-79
2023/08/28 11:56:10;;;;;;;1.30;0.30;;;17.50;99.90;;;;;;5043907;28;20056;-82
2023/08/28 11:58:39;;;;;;;0.63;0.20;;;17.70;99.90;;;;;;5048708;28;20063;-80
2023/08/28 12:01:08;;;;;;;1.52;0.35;;;17.90;99.90;;;;;;5053733;28;20041;-81
2023/08/28 12:03:36;;;;;;;1.05;0.30;;;18.10;99.90;;;;;;5030508;28;20068;-79
2023/08/28 12:06:06;;;;;;;2.17;0.30;;;18.20;99.90;;;;;;5046609;28;20121;-80
2023/08/28 12:08:39;;;;;;;1.45;0.30;;;18.30;99.90;;;;;;5048351;28;20166;-81
2023/08/28 12:11:07;;;;;;;2.45;0.30;;;18.50;99.90;;;;;;5046284;28;20041;-80
2023/08/28 12:13:36;;;;;;;2.25;0.30;;;18.80;99.90;;;;;;5052328;28;20120;-81
2023/08/28 12:16:17;;;;;;;2.22;0.28;;;18.90;99.90;;;;;;5052668;28;20041;-81
2023/08/28 12:18:47;;;;;;;1.27;0.43;;;19.20;99.90;;;;;;5050690;28;21307;-80
2023/08/28 12:21:15;;;;;;;2.22;0.22;;;19.30;99.90;;;;;;5033320;28;20462;-81
2023/08/28 12:23:51;;;;;;;1.52;0.50;;;19.30;99.90;;;;;;5051698;28;20049;-81
2023/08/28 12:26:18;;;;;;;2.58;0.43;;;19.20;99.90;;;;;;5050347;28;20045;-81
2023/08/28 12:28:45;;;;;;;1.70;0.63;;;19.20;99.90;;;;;;5014949;28;20124;-81
2023/08/28 12:31:10;;;;;;;2.63;0.85;;;19.10;99.90;;;;;;5052980;28;20170;-81
2023/08/28 12:33:44;;;;;;;2.53;0.68;;;19.00;99.90;;;;;;5050142;28;20037;-81
2023/08/28 12:36:10;;;;;;;;;;;19.00;99.90;;;;;;5052262;28;20057;-79
2023/08/28 12:38:49;;;;;;;1.42;0.40;;;18.90;99.90;;;;;;5049776;28;19920;-85
2023/08/28 12:41:17;;;;;;;2.20;0.40;;;18.80;99.90;;;;;;5046798;28;20051;-81
2023/08/28 12:43:44;;;;;;;2.63;0.30;;;18.80;99.90;;;;;;5032787;28;20068;-80
2023/08/28 12:46:09;;;;;;;1.25;0.30;;;18.80;99.90;;;;;;5049265;28;20068;-77
2023/08/28 12:48:35;;;;;;;2.72;0.60;;;18.70;99.90;;;;;;5049967;28;20087;-84